sensor_id;sensor_type;location;lat;lon;timestamp;P1;durP1;ratioP1;P2;durP2;ratioP2
67867;SDS011;54672;46.096;14.470;2023-04-24T00:02:17;7.57;;;4.40;;
67867;SDS011;54672;46.096;14.470;2023-04-24T00:04:43;6.32;;;4.30;;
67867;SDS011;54672;46.096;14.470;2023-04-24T00:07:12;6.78;;;4.00;;
67867;SDS011;54672;46.096;14.470;2023-04-24T00:09:38;7.13;;;3.83;;
67867;SDS011;54672;46.096;14.470;2023-04-24T00:12:03;7.63;;;3.75;;
67867;SDS011;54672;46.096;14.470;2023-04-24T00:14:30;6.38;;;3.90;;
67867;SDS011;54672;46.096;14.470;2023-04-24T00:16:56;6.82;;;4.25;;
67867;SDS011;54672;46.096;14.470;2023-04-24T00:19:21;6.88;;;3.92;;
67867;SDS011;54672;46.096;14.470;2023-04-24T00:21:47;7.88;;;4.40;;
67867;SDS011;54672;46.096;14.470;2023-04-24T00:24:15;7.03;;;3.90;;
67867;SDS011;54672;46.096;14.470;2023-04-24T00:26:41;6.97;;;4.72;;
67867;SDS011;54672;46.096;14.470;2023-04-24T00:29:06;5.82;;;4.05;;
67867;SDS011;54672;46.096;14.470;2023-04-24T00:31:32;6.05;;;3.60;;
67867;SDS011;54672;46.096;14.470;2023-04-24T00:33:59;6.50;;;4.07;;
67867;SDS011;54672;46.096;14.470;2023-04-24T00:36:25;6.32;;;4.03;;
67867;SDS011;54672;46.096;14.470;2023-04-24T00:38:51;8.07;;;4.25;;
67867;SDS011;54672;46.096;14.470;2023-04-24T00:41:17;6.28;;;4.45;;
67867;SDS011;54672;46.096;14.470;2023-04-24T00:43:43;8.77;;;4.13;;
67867;SDS011;54672;46.096;14.470;2023-04-24T00:46:08;6.60;;;3.90;;
67867;SDS011;54672;46.096;14.470;2023-04-24T00:48:34;7.18;;;3.97;;
67867;SDS011;54672;46.096;14.470;2023-04-24T00:50:59;6.80;;;3.80;;
67867;SDS011;54672;46.096;14.470;2023-04-24T00:53:25;7.43;;;4.15;;
67867;SDS011;54672;46.096;14.470;2023-04-24T00:55:51;6.10;;;4.05;;
67867;SDS011;54672;46.096;14.470;2023-04-24T00:58:16;5.60;;;3.75;;
67867;SDS011;54672;46.096;14.470;2023-04-24T01:00:42;5.82;;;3.90;;
67867;SDS011;54672;46.096;14.470;2023-04-24T01:03:08;6.18;;;3.80;;
67867;SDS011;54672;46.096;14.470;2023-04-24T01:05:35;7.78;;;4.43;;
67867;SDS011;54672;46.096;14.470;2023-04-24T01:08:01;7.20;;;3.90;;
67867;SDS011;54672;46.096;14.470;2023-04-24T01:10:27;5.90;;;4.03;;
67867;SDS011;54672;46.096;14.470;2023-04-24T01:12:55;8.13;;;3.92;;
67867;SDS011;54672;46.096;14.470;2023-04-24T01:15:21;6.05;;;4.20;;
67867;SDS011;54672;46.096;14.470;2023-04-24T01:17:47;8.13;;;4.50;;
67867;SDS011;54672;46.096;14.470;2023-04-24T01:20:12;7.15;;;4.13;;
67867;SDS011;54672;46.096;14.470;2023-04-24T01:22:38;8.20;;;4.38;;
67867;SDS011;54672;46.096;14.470;2023-04-24T01:25:04;8.77;;;4.60;;
67867;SDS011;54672;46.096;14.470;2023-04-24T01:27:30;6.30;;;4.15;;
67867;SDS011;54672;46.096;14.470;2023-04-24T01:29:55;8.57;;;5.03;;
67867;SDS011;54672;46.096;14.470;2023-04-24T01:32:21;7.63;;;4.53;;
67867;SDS011;54672;46.096;14.470;2023-04-24T01:34:47;7.45;;;4.20;;
67867;SDS011;54672;46.096;14.470;2023-04-24T01:37:13;8.27;;;4.50;;
67867;SDS011;54672;46.096;14.470;2023-04-24T01:39:39;6.20;;;3.50;;
67867;SDS011;54672;46.096;14.470;2023-04-24T01:42:05;6.15;;;3.88;;
67867;SDS011;54672;46.096;14.470;2023-04-24T01:44:30;6.40;;;4.40;;
67867;SDS011;54672;46.096;14.470;2023-04-24T01:46:56;7.95;;;4.00;;
67867;SDS011;54672;46.096;14.470;2023-04-24T01:49:22;8.82;;;4.28;;
67867;SDS011;54672;46.096;14.470;2023-04-24T01:51:47;7.78;;;3.97;;
67867;SDS011;54672;46.096;14.470;2023-04-24T01:54:13;6.65;;;3.60;;
67867;SDS011;54672;46.096;14.470;2023-04-24T01:56:42;6.70;;;4.13;;
67867;SDS011;54672;46.096;14.470;2023-04-24T01:59:11;5.35;;;3.78;;
67867;SDS011;54672;46.096;14.470;2023-04-24T02:01:38;7.13;;;4.47;;
67867;SDS011;54672;46.096;14.470;2023-04-24T02:04:04;6.53;;;3.83;;
67867;SDS011;54672;46.096;14.470;2023-04-24T02:06:30;7.88;;;4.47;;
67867;SDS011;54672;46.096;14.470;2023-04-24T02:08:59;6.68;;;4.30;;
67867;SDS011;54672;46.096;14.470;2023-04-24T02:11:26;8.65;;;4.30;;
67867;SDS011;54672;46.096;14.470;2023-04-24T02:13:51;7.55;;;4.72;;
67867;SDS011;54672;46.096;14.470;2023-04-24T02:16:17;6.13;;;3.97;;
67867;SDS011;54672;46.096;14.470;2023-04-24T02:18:43;7.20;;;4.43;;
67867;SDS011;54672;46.096;14.470;2023-04-24T02:21:09;7.32;;;4.40;;
67867;SDS011;54672;46.096;14.470;2023-04-24T02:23:35;7.35;;;4.00;;
67867;SDS011;54672;46.096;14.470;2023-04-24T02:26:00;6.38;;;4.28;;
67867;SDS011;54672;46.096;14.470;2023-04-24T02:28:26;6.95;;;4.68;;
67867;SDS011;54672;46.096;14.470;2023-04-24T02:30:51;6.63;;;4.32;;
67867;SDS011;54672;46.096;14.470;2023-04-24T02:33:17;7.43;;;4.40;;
67867;SDS011;54672;46.096;14.470;2023-04-24T02:35:42;7.45;;;4.25;;
67867;SDS011;54672;46.096;14.470;2023-04-24T02:38:08;7.55;;;4.53;;
67867;SDS011;54672;46.096;14.470;2023-04-24T02:40:33;7.38;;;4.57;;
67867;SDS011;54672;46.096;14.470;2023-04-24T02:42:59;7.20;;;4.50;;
67867;SDS011;54672;46.096;14.470;2023-04-24T02:45:24;8.07;;;4.53;;
67867;SDS011;54672;46.096;14.470;2023-04-24T02:47:49;7.75;;;4.40;;
67867;SDS011;54672;46.096;14.470;2023-04-24T02:50:15;8.93;;;4.70;;
67867;SDS011;54672;46.096;14.470;2023-04-24T02:52:40;8.23;;;4.47;;
67867;SDS011;54672;46.096;14.470;2023-04-24T02:55:06;8.05;;;4.55;;
67867;SDS011;54672;46.096;14.470;2023-04-24T02:57:33;12.20;;;5.05;;
67867;SDS011;54672;46.096;14.470;2023-04-24T02:59:58;6.22;;;4.05;;
67867;SDS011;54672;46.096;14.470;2023-04-24T03:02:24;7.93;;;4.43;;
67867;SDS011;54672;46.096;14.470;2023-04-24T03:04:50;7.75;;;4.32;;
67867;SDS011;54672;46.096;14.470;2023-04-24T03:07:15;7.60;;;4.63;;
67867;SDS011;54672;46.096;14.470;2023-04-24T03:09:41;6.40;;;4.22;;
67867;SDS011;54672;46.096;14.470;2023-04-24T03:12:06;6.35;;;4.22;;
67867;SDS011;54672;46.096;14.470;2023-04-24T03:14:32;7.20;;;4.30;;
67867;SDS011;54672;46.096;14.470;2023-04-24T03:16:57;8.30;;;4.80;;
67867;SDS011;54672;46.096;14.470;2023-04-24T03:19:23;13.32;;;4.60;;
67867;SDS011;54672;46.096;14.470;2023-04-24T03:21:49;9.38;;;4.70;;
67867;SDS011;54672;46.096;14.470;2023-04-24T03:24:14;7.95;;;4.32;;
67867;SDS011;54672;46.096;14.470;2023-04-24T03:26:40;9.85;;;4.60;;
67867;SDS011;54672;46.096;14.470;2023-04-24T03:29:05;6.72;;;4.28;;
67867;SDS011;54672;46.096;14.470;2023-04-24T03:31:31;8.30;;;4.47;;
67867;SDS011;54672;46.096;14.470;2023-04-24T03:33:56;8.73;;;4.43;;
67867;SDS011;54672;46.096;14.470;2023-04-24T03:36:22;9.02;;;4.35;;
67867;SDS011;54672;46.096;14.470;2023-04-24T03:38:47;7.53;;;4.75;;
67867;SDS011;54672;46.096;14.470;2023-04-24T03:41:12;6.65;;;4.32;;
67867;SDS011;54672;46.096;14.470;2023-04-24T03:43:38;8.73;;;4.38;;
67867;SDS011;54672;46.096;14.470;2023-04-24T03:46:04;8.52;;;4.47;;
67867;SDS011;54672;46.096;14.470;2023-04-24T03:48:30;7.40;;;4.55;;
67867;SDS011;54672;46.096;14.470;2023-04-24T03:50:55;7.35;;;4.82;;
67867;SDS011;54672;46.096;14.470;2023-04-24T03:53:20;7.32;;;4.68;;
67867;SDS011;54672;46.096;14.470;2023-04-24T03:55:46;7.55;;;4.80;;
67867;SDS011;54672;46.096;14.470;2023-04-24T03:58:12;6.93;;;4.50;;
67867;SDS011;54672;46.096;14.470;2023-04-24T04:00:39;8.63;;;4.85;;
67867;SDS011;54672;46.096;14.470;2023-04-24T04:03:05;10.23;;;4.78;;
67867;SDS011;54672;46.096;14.470;2023-04-24T04:05:31;7.93;;;4.82;;
67867;SDS011;54672;46.096;14.470;2023-04-24T04:07:56;8.73;;;4.72;;
67867;SDS011;54672;46.096;14.470;2023-04-24T04:10:21;9.68;;;5.10;;
67867;SDS011;54672;46.096;14.470;2023-04-24T04:12:47;8.70;;;4.90;;
67867;SDS011;54672;46.096;14.470;2023-04-24T04:15:12;9.68;;;4.95;;
67867;SDS011;54672;46.096;14.470;2023-04-24T04:17:38;9.98;;;5.07;;
67867;SDS011;54672;46.096;14.470;2023-04-24T04:20:04;6.93;;;4.63;;
67867;SDS011;54672;46.096;14.470;2023-04-24T04:22:34;9.48;;;5.32;;
67867;SDS011;54672;46.096;14.470;2023-04-24T04:24:59;8.07;;;5.43;;
67867;SDS011;54672;46.096;14.470;2023-04-24T04:27:25;8.45;;;5.55;;
67867;SDS011;54672;46.096;14.470;2023-04-24T04:29:51;8.38;;;5.05;;
67867;SDS011;54672;46.096;14.470;2023-04-24T04:32:17;10.00;;;4.93;;
67867;SDS011;54672;46.096;14.470;2023-04-24T04:34:42;9.05;;;4.97;;
67867;SDS011;54672;46.096;14.470;2023-04-24T04:37:10;10.27;;;5.70;;
67867;SDS011;54672;46.096;14.470;2023-04-24T04:39:37;9.50;;;5.07;;
67867;SDS011;54672;46.096;14.470;2023-04-24T04:42:03;8.60;;;5.60;;
67867;SDS011;54672;46.096;14.470;2023-04-24T04:44:28;10.88;;;5.20;;
67867;SDS011;54672;46.096;14.470;2023-04-24T04:46:56;10.15;;;5.60;;
67867;SDS011;54672;46.096;14.470;2023-04-24T04:49:22;8.43;;;5.45;;
67867;SDS011;54672;46.096;14.470;2023-04-24T04:51:48;9.73;;;5.90;;
67867;SDS011;54672;46.096;14.470;2023-04-24T04:54:15;11.73;;;6.53;;
67867;SDS011;54672;46.096;14.470;2023-04-24T04:56:41;12.75;;;5.90;;
67867;SDS011;54672;46.096;14.470;2023-04-24T04:59:06;11.65;;;6.53;;
67867;SDS011;54672;46.096;14.470;2023-04-24T05:01:32;13.07;;;6.35;;
67867;SDS011;54672;46.096;14.470;2023-04-24T05:03:57;14.90;;;6.80;;
67867;SDS011;54672;46.096;14.470;2023-04-24T05:06:23;11.35;;;6.07;;
67867;SDS011;54672;46.096;14.470;2023-04-24T05:08:48;10.23;;;6.53;;
67867;SDS011;54672;46.096;14.470;2023-04-24T05:11:14;12.23;;;6.28;;
67867;SDS011;54672;46.096;14.470;2023-04-24T05:13:40;16.33;;;7.10;;
67867;SDS011;54672;46.096;14.470;2023-04-24T05:16:05;12.82;;;6.20;;
67867;SDS011;54672;46.096;14.470;2023-04-24T05:18:31;11.32;;;6.15;;
67867;SDS011;54672;46.096;14.470;2023-04-24T05:20:57;10.98;;;6.00;;
67867;SDS011;54672;46.096;14.470;2023-04-24T05:23:22;12.10;;;6.72;;
67867;SDS011;54672;46.096;14.470;2023-04-24T05:25:48;15.45;;;8.27;;
67867;SDS011;54672;46.096;14.470;2023-04-24T05:28:13;12.18;;;6.70;;
67867;SDS011;54672;46.096;14.470;2023-04-24T05:30:40;11.88;;;7.85;;
67867;SDS011;54672;46.096;14.470;2023-04-24T05:33:05;11.00;;;6.93;;
67867;SDS011;54672;46.096;14.470;2023-04-24T05:35:31;17.33;;;7.30;;
67867;SDS011;54672;46.096;14.470;2023-04-24T05:37:56;17.80;;;7.35;;
67867;SDS011;54672;46.096;14.470;2023-04-24T05:40:22;11.50;;;7.18;;
67867;SDS011;54672;46.096;14.470;2023-04-24T05:42:47;14.70;;;6.97;;
67867;SDS011;54672;46.096;14.470;2023-04-24T05:45:13;14.35;;;6.90;;
67867;SDS011;54672;46.096;14.470;2023-04-24T05:47:42;12.52;;;6.63;;
67867;SDS011;54672;46.096;14.470;2023-04-24T05:50:09;12.55;;;6.80;;
67867;SDS011;54672;46.096;14.470;2023-04-24T05:52:35;11.07;;;6.60;;
67867;SDS011;54672;46.096;14.470;2023-04-24T05:55:00;14.15;;;7.50;;
67867;SDS011;54672;46.096;14.470;2023-04-24T05:57:26;13.80;;;7.72;;
67867;SDS011;54672;46.096;14.470;2023-04-24T05:59:51;13.05;;;7.30;;
67867;SDS011;54672;46.096;14.470;2023-04-24T06:02:17;12.85;;;7.55;;
67867;SDS011;54672;46.096;14.470;2023-04-24T06:04:42;12.60;;;7.28;;
67867;SDS011;54672;46.096;14.470;2023-04-24T06:07:10;11.95;;;7.07;;
67867;SDS011;54672;46.096;14.470;2023-04-24T06:09:36;12.85;;;7.68;;
67867;SDS011;54672;46.096;14.470;2023-04-24T06:12:01;11.73;;;7.30;;
67867;SDS011;54672;46.096;14.470;2023-04-24T06:14:27;17.17;;;8.32;;
67867;SDS011;54672;46.096;14.470;2023-04-24T06:16:53;14.13;;;9.10;;
67867;SDS011;54672;46.096;14.470;2023-04-24T06:19:18;15.07;;;7.40;;
67867;SDS011;54672;46.096;14.470;2023-04-24T06:21:44;11.93;;;6.85;;
67867;SDS011;54672;46.096;14.470;2023-04-24T06:24:10;11.15;;;6.93;;
67867;SDS011;54672;46.096;14.470;2023-04-24T06:26:35;13.57;;;7.78;;
67867;SDS011;54672;46.096;14.470;2023-04-24T06:29:01;15.82;;;8.15;;
67867;SDS011;54672;46.096;14.470;2023-04-24T06:31:26;12.20;;;6.95;;
67867;SDS011;54672;46.096;14.470;2023-04-24T06:33:52;12.43;;;7.25;;
67867;SDS011;54672;46.096;14.470;2023-04-24T06:36:17;15.10;;;7.72;;
67867;SDS011;54672;46.096;14.470;2023-04-24T06:38:43;11.55;;;6.97;;
67867;SDS011;54672;46.096;14.470;2023-04-24T06:41:09;13.18;;;6.63;;
67867;SDS011;54672;46.096;14.470;2023-04-24T06:43:35;12.88;;;6.78;;
67867;SDS011;54672;46.096;14.470;2023-04-24T06:46:00;15.40;;;7.40;;
67867;SDS011;54672;46.096;14.470;2023-04-24T06:48:28;13.48;;;7.50;;
67867;SDS011;54672;46.096;14.470;2023-04-24T06:50:54;12.55;;;7.60;;
67867;SDS011;54672;46.096;14.470;2023-04-24T06:53:19;13.63;;;7.40;;
67867;SDS011;54672;46.096;14.470;2023-04-24T06:55:44;10.15;;;6.85;;
67867;SDS011;54672;46.096;14.470;2023-04-24T06:58:11;12.25;;;6.22;;
67867;SDS011;54672;46.096;14.470;2023-04-24T07:00:37;13.38;;;7.30;;
67867;SDS011;54672;46.096;14.470;2023-04-24T07:03:03;10.75;;;6.90;;
67867;SDS011;54672;46.096;14.470;2023-04-24T07:05:30;13.02;;;7.55;;
67867;SDS011;54672;46.096;14.470;2023-04-24T07:07:55;10.38;;;7.00;;
67867;SDS011;54672;46.096;14.470;2023-04-24T07:10:23;10.45;;;6.45;;
67867;SDS011;54672;46.096;14.470;2023-04-24T07:12:49;10.23;;;6.32;;
67867;SDS011;54672;46.096;14.470;2023-04-24T07:15:14;11.10;;;6.95;;
67867;SDS011;54672;46.096;14.470;2023-04-24T07:17:41;12.25;;;6.63;;
67867;SDS011;54672;46.096;14.470;2023-04-24T07:20:10;12.20;;;6.80;;
67867;SDS011;54672;46.096;14.470;2023-04-24T07:22:39;11.70;;;7.30;;
67867;SDS011;54672;46.096;14.470;2023-04-24T07:25:05;11.73;;;6.60;;
67867;SDS011;54672;46.096;14.470;2023-04-24T07:27:32;10.77;;;6.47;;
67867;SDS011;54672;46.096;14.470;2023-04-24T07:29:58;12.77;;;7.78;;
67867;SDS011;54672;46.096;14.470;2023-04-24T07:32:23;11.85;;;7.00;;
67867;SDS011;54672;46.096;14.470;2023-04-24T07:34:48;14.38;;;7.53;;
67867;SDS011;54672;46.096;14.470;2023-04-24T07:37:14;15.00;;;7.07;;
67867;SDS011;54672;46.096;14.470;2023-04-24T07:39:40;20.58;;;7.72;;
67867;SDS011;54672;46.096;14.470;2023-04-24T07:42:05;24.60;;;7.22;;
67867;SDS011;54672;46.096;14.470;2023-04-24T07:44:31;19.75;;;7.72;;
67867;SDS011;54672;46.096;14.470;2023-04-24T07:46:57;15.85;;;6.70;;
67867;SDS011;54672;46.096;14.470;2023-04-24T07:49:22;25.15;;;7.45;;
67867;SDS011;54672;46.096;14.470;2023-04-24T07:51:48;20.73;;;7.20;;
67867;SDS011;54672;46.096;14.470;2023-04-24T07:54:14;32.88;;;8.07;;
67867;SDS011;54672;46.096;14.470;2023-04-24T07:56:40;9.63;;;5.22;;
67867;SDS011;54672;46.096;14.470;2023-04-24T07:59:08;10.32;;;5.75;;
67867;SDS011;54672;46.096;14.470;2023-04-24T08:01:35;8.70;;;5.10;;
67867;SDS011;54672;46.096;14.470;2023-04-24T08:04:00;10.80;;;5.10;;
67867;SDS011;54672;46.096;14.470;2023-04-24T08:06:26;7.38;;;4.88;;
67867;SDS011;54672;46.096;14.470;2023-04-24T08:08:58;8.43;;;4.97;;
67867;SDS011;54672;46.096;14.470;2023-04-24T08:11:24;9.57;;;4.93;;
67867;SDS011;54672;46.096;14.470;2023-04-24T08:13:50;8.07;;;4.72;;
67867;SDS011;54672;46.096;14.470;2023-04-24T08:16:16;10.88;;;4.72;;
67867;SDS011;54672;46.096;14.470;2023-04-24T08:18:41;9.40;;;4.88;;
67867;SDS011;54672;46.096;14.470;2023-04-24T08:21:06;7.70;;;4.35;;
67867;SDS011;54672;46.096;14.470;2023-04-24T08:23:32;9.82;;;4.97;;
67867;SDS011;54672;46.096;14.470;2023-04-24T08:25:57;7.40;;;4.70;;
67867;SDS011;54672;46.096;14.470;2023-04-24T08:28:23;9.75;;;4.63;;
67867;SDS011;54672;46.096;14.470;2023-04-24T08:30:48;8.90;;;4.70;;
67867;SDS011;54672;46.096;14.470;2023-04-24T08:33:19;8.32;;;3.83;;
67867;SDS011;54672;46.096;14.470;2023-04-24T08:35:45;7.85;;;4.18;;
67867;SDS011;54672;46.096;14.470;2023-04-24T08:38:10;7.35;;;4.40;;
67867;SDS011;54672;46.096;14.470;2023-04-24T08:40:36;6.68;;;4.38;;
67867;SDS011;54672;46.096;14.470;2023-04-24T08:43:01;8.05;;;4.47;;
67867;SDS011;54672;46.096;14.470;2023-04-24T08:45:28;6.93;;;4.40;;
67867;SDS011;54672;46.096;14.470;2023-04-24T08:47:54;7.72;;;4.22;;
67867;SDS011;54672;46.096;14.470;2023-04-24T08:50:20;5.88;;;3.80;;
67867;SDS011;54672;46.096;14.470;2023-04-24T08:52:48;8.80;;;4.97;;
67867;SDS011;54672;46.096;14.470;2023-04-24T08:55:15;13.43;;;4.65;;
67867;SDS011;54672;46.096;14.470;2023-04-24T08:57:43;9.55;;;4.65;;
67867;SDS011;54672;46.096;14.470;2023-04-24T09:00:10;8.90;;;4.47;;
67867;SDS011;54672;46.096;14.470;2023-04-24T09:02:38;7.15;;;4.60;;
67867;SDS011;54672;46.096;14.470;2023-04-24T09:05:06;10.68;;;4.70;;
67867;SDS011;54672;46.096;14.470;2023-04-24T09:07:33;8.02;;;4.22;;
67867;SDS011;54672;46.096;14.470;2023-04-24T09:10:01;8.57;;;5.25;;
67867;SDS011;54672;46.096;14.470;2023-04-24T09:12:28;8.80;;;5.03;;
67867;SDS011;54672;46.096;14.470;2023-04-24T09:14:53;8.90;;;4.88;;
67867;SDS011;54672;46.096;14.470;2023-04-24T09:17:20;6.72;;;3.95;;
67867;SDS011;54672;46.096;14.470;2023-04-24T09:19:47;11.40;;;4.65;;
67867;SDS011;54672;46.096;14.470;2023-04-24T09:22:13;10.60;;;5.97;;
67867;SDS011;54672;46.096;14.470;2023-04-24T09:24:40;9.20;;;5.80;;
67867;SDS011;54672;46.096;14.470;2023-04-24T09:27:06;9.82;;;5.57;;
67867;SDS011;54672;46.096;14.470;2023-04-24T09:29:32;8.43;;;5.40;;
67867;SDS011;54672;46.096;14.470;2023-04-24T09:31:58;10.35;;;5.63;;
67867;SDS011;54672;46.096;14.470;2023-04-24T09:34:24;8.15;;;5.05;;
67867;SDS011;54672;46.096;14.470;2023-04-24T09:36:51;10.45;;;5.30;;
67867;SDS011;54672;46.096;14.470;2023-04-24T09:39:17;13.50;;;5.70;;
67867;SDS011;54672;46.096;14.470;2023-04-24T09:41:47;7.05;;;4.82;;
67867;SDS011;54672;46.096;14.470;2023-04-24T09:44:20;7.85;;;4.80;;
67867;SDS011;54672;46.096;14.470;2023-04-24T09:47:05;9.98;;;4.95;;
67867;SDS011;54672;46.096;14.470;2023-04-24T09:49:34;6.90;;;4.70;;
67867;SDS011;54672;46.096;14.470;2023-04-24T09:52:04;9.55;;;5.20;;
67867;SDS011;54672;46.096;14.470;2023-04-24T09:54:31;14.68;;;5.35;;
67867;SDS011;54672;46.096;14.470;2023-04-24T09:56:57;9.80;;;5.38;;
67867;SDS011;54672;46.096;14.470;2023-04-24T09:59:22;8.77;;;5.72;;
67867;SDS011;54672;46.096;14.470;2023-04-24T10:01:48;10.90;;;6.45;;
67867;SDS011;54672;46.096;14.470;2023-04-24T10:06:43;9.35;;;6.03;;
67867;SDS011;54672;46.096;14.470;2023-04-24T10:09:09;10.15;;;6.28;;
67867;SDS011;54672;46.096;14.470;2023-04-24T10:11:37;12.75;;;6.90;;
67867;SDS011;54672;46.096;14.470;2023-04-24T10:14:04;11.02;;;6.55;;
67867;SDS011;54672;46.096;14.470;2023-04-24T10:16:30;13.35;;;6.95;;
67867;SDS011;54672;46.096;14.470;2023-04-24T10:18:58;11.23;;;6.53;;
67867;SDS011;54672;46.096;14.470;2023-04-24T10:21:24;12.85;;;6.55;;
67867;SDS011;54672;46.096;14.470;2023-04-24T10:23:51;11.52;;;6.85;;
67867;SDS011;54672;46.096;14.470;2023-04-24T10:26:18;11.65;;;7.60;;
67867;SDS011;54672;46.096;14.470;2023-04-24T10:28:45;13.10;;;8.25;;
67867;SDS011;54672;46.096;14.470;2023-04-24T10:31:11;13.05;;;6.93;;
67867;SDS011;54672;46.096;14.470;2023-04-24T10:33:38;13.38;;;7.40;;
67867;SDS011;54672;46.096;14.470;2023-04-24T10:36:06;14.75;;;7.28;;
67867;SDS011;54672;46.096;14.470;2023-04-24T10:38:34;14.75;;;7.80;;
67867;SDS011;54672;46.096;14.470;2023-04-24T10:41:10;15.75;;;7.43;;
67867;SDS011;54672;46.096;14.470;2023-04-24T10:43:41;12.05;;;6.82;;
67867;SDS011;54672;46.096;14.470;2023-04-24T10:46:07;11.88;;;6.55;;
67867;SDS011;54672;46.096;14.470;2023-04-24T10:48:35;28.77;;;16.50;;
67867;SDS011;54672;46.096;14.470;2023-04-24T10:51:00;20.25;;;10.98;;
67867;SDS011;54672;46.096;14.470;2023-04-24T10:53:29;23.02;;;11.77;;
67867;SDS011;54672;46.096;14.470;2023-04-24T10:56:08;21.63;;;9.60;;
67867;SDS011;54672;46.096;14.470;2023-04-24T10:58:40;21.83;;;11.25;;
67867;SDS011;54672;46.096;14.470;2023-04-24T11:01:08;15.93;;;9.13;;
67867;SDS011;54672;46.096;14.470;2023-04-24T11:03:34;11.65;;;6.45;;
67867;SDS011;54672;46.096;14.470;2023-04-24T11:06:07;10.90;;;6.03;;
67867;SDS011;54672;46.096;14.470;2023-04-24T11:11:13;13.55;;;7.28;;
67867;SDS011;54672;46.096;14.470;2023-04-24T11:18:52;17.10;;;8.35;;
67867;SDS011;54672;46.096;14.470;2023-04-24T11:21:25;12.38;;;7.68;;
67867;SDS011;54672;46.096;14.470;2023-04-24T11:23:51;13.57;;;7.07;;
67867;SDS011;54672;46.096;14.470;2023-04-24T11:26:21;12.95;;;7.13;;
67867;SDS011;54672;46.096;14.470;2023-04-24T11:28:49;15.65;;;7.10;;
67867;SDS011;54672;46.096;14.470;2023-04-24T11:31:37;14.38;;;8.80;;
67867;SDS011;54672;46.096;14.470;2023-04-24T11:34:12;16.05;;;9.45;;
67867;SDS011;54672;46.096;14.470;2023-04-24T11:36:39;16.50;;;9.10;;
67867;SDS011;54672;46.096;14.470;2023-04-24T11:39:05;20.08;;;9.23;;
67867;SDS011;54672;46.096;14.470;2023-04-24T11:41:31;16.85;;;9.35;;
67867;SDS011;54672;46.096;14.470;2023-04-24T11:43:58;18.95;;;9.85;;
67867;SDS011;54672;46.096;14.470;2023-04-24T11:46:27;12.90;;;7.20;;
67867;SDS011;54672;46.096;14.470;2023-04-24T11:48:53;18.35;;;8.20;;
67867;SDS011;54672;46.096;14.470;2023-04-24T11:51:19;16.90;;;9.02;;
67867;SDS011;54672;46.096;14.470;2023-04-24T11:53:44;14.82;;;9.00;;
67867;SDS011;54672;46.096;14.470;2023-04-24T11:56:10;16.95;;;9.57;;
67867;SDS011;54672;46.096;14.470;2023-04-24T11:58:36;17.02;;;10.00;;
67867;SDS011;54672;46.096;14.470;2023-04-24T12:01:03;21.92;;;11.70;;
67867;SDS011;54672;46.096;14.470;2023-04-24T12:03:30;20.15;;;10.35;;
67867;SDS011;54672;46.096;14.470;2023-04-24T12:06:05;18.48;;;10.40;;
67867;SDS011;54672;46.096;14.470;2023-04-24T12:08:34;19.88;;;10.65;;
67867;SDS011;54672;46.096;14.470;2023-04-24T12:11:00;15.60;;;8.70;;
67867;SDS011;54672;46.096;14.470;2023-04-24T12:13:27;16.17;;;9.55;;
67867;SDS011;54672;46.096;14.470;2023-04-24T12:15:53;12.15;;;7.15;;
67867;SDS011;54672;46.096;14.470;2023-04-24T12:18:18;14.63;;;7.90;;
67867;SDS011;54672;46.096;14.470;2023-04-24T12:20:47;13.70;;;8.38;;
67867;SDS011;54672;46.096;14.470;2023-04-24T12:23:13;15.35;;;7.22;;
67867;SDS011;54672;46.096;14.470;2023-04-24T12:25:38;13.10;;;7.50;;
67867;SDS011;54672;46.096;14.470;2023-04-24T12:30:33;17.65;;;9.27;;
67867;SDS011;54672;46.096;14.470;2023-04-24T12:33:01;13.48;;;7.90;;
67867;SDS011;54672;46.096;14.470;2023-04-24T12:35:28;14.02;;;8.32;;
67867;SDS011;54672;46.096;14.470;2023-04-24T12:37:55;15.73;;;8.45;;
67867;SDS011;54672;46.096;14.470;2023-04-24T12:40:21;14.50;;;7.53;;
67867;SDS011;54672;46.096;14.470;2023-04-24T12:42:50;14.65;;;7.80;;
67867;SDS011;54672;46.096;14.470;2023-04-24T12:45:17;14.52;;;7.88;;
67867;SDS011;54672;46.096;14.470;2023-04-24T12:47:44;11.68;;;7.38;;
67867;SDS011;54672;46.096;14.470;2023-04-24T12:50:11;15.25;;;8.52;;
67867;SDS011;54672;46.096;14.470;2023-04-24T12:52:38;13.70;;;8.05;;
67867;SDS011;54672;46.096;14.470;2023-04-24T12:55:04;12.32;;;8.02;;
67867;SDS011;54672;46.096;14.470;2023-04-24T12:57:33;11.10;;;6.20;;
67867;SDS011;54672;46.096;14.470;2023-04-24T13:00:00;13.65;;;8.27;;
67867;SDS011;54672;46.096;14.470;2023-04-24T13:02:26;11.85;;;7.13;;
67867;SDS011;54672;46.096;14.470;2023-04-24T13:04:54;13.43;;;7.15;;
67867;SDS011;54672;46.096;14.470;2023-04-24T13:07:19;14.90;;;7.68;;
67867;SDS011;54672;46.096;14.470;2023-04-24T13:09:45;10.52;;;5.35;;
67867;SDS011;54672;46.096;14.470;2023-04-24T13:12:12;13.90;;;6.28;;
67867;SDS011;54672;46.096;14.470;2023-04-24T13:14:38;11.77;;;6.00;;
67867;SDS011;54672;46.096;14.470;2023-04-24T13:17:03;9.77;;;6.25;;
67867;SDS011;54672;46.096;14.470;2023-04-24T13:19:30;7.63;;;3.53;;
67867;SDS011;54672;46.096;14.470;2023-04-24T13:22:01;10.15;;;4.10;;
67867;SDS011;54672;46.096;14.470;2023-04-24T13:24:26;4.95;;;2.92;;
67867;SDS011;54672;46.096;14.470;2023-04-24T13:26:52;5.53;;;3.78;;
67867;SDS011;54672;46.096;14.470;2023-04-24T13:29:18;6.45;;;4.38;;
67867;SDS011;54672;46.096;14.470;2023-04-24T13:31:44;5.25;;;2.63;;
67867;SDS011;54672;46.096;14.470;2023-04-24T13:34:10;5.28;;;3.00;;
67867;SDS011;54672;46.096;14.470;2023-04-24T13:36:35;5.35;;;3.00;;
67867;SDS011;54672;46.096;14.470;2023-04-24T13:39:01;8.63;;;3.97;;
67867;SDS011;54672;46.096;14.470;2023-04-24T13:41:29;5.80;;;3.60;;
67867;SDS011;54672;46.096;14.470;2023-04-24T13:43:55;6.85;;;4.25;;
67867;SDS011;54672;46.096;14.470;2023-04-24T13:46:21;7.32;;;4.25;;
67867;SDS011;54672;46.096;14.470;2023-04-24T13:48:46;14.15;;;4.80;;
67867;SDS011;54672;46.096;14.470;2023-04-24T13:51:12;9.80;;;4.53;;
67867;SDS011;54672;46.096;14.470;2023-04-24T13:53:37;9.98;;;4.82;;
67867;SDS011;54672;46.096;14.470;2023-04-24T13:56:04;8.13;;;3.58;;
67867;SDS011;54672;46.096;14.470;2023-04-24T13:58:30;5.68;;;3.45;;
67867;SDS011;54672;46.096;14.470;2023-04-24T14:00:56;6.30;;;3.78;;
67867;SDS011;54672;46.096;14.470;2023-04-24T14:03:21;7.43;;;4.15;;
67867;SDS011;54672;46.096;14.470;2023-04-24T14:05:47;6.65;;;4.15;;
67867;SDS011;54672;46.096;14.470;2023-04-24T14:08:12;8.57;;;4.68;;
67867;SDS011;54672;46.096;14.470;2023-04-24T14:10:37;8.20;;;3.47;;
67867;SDS011;54672;46.096;14.470;2023-04-24T14:13:03;4.35;;;2.92;;
67867;SDS011;54672;46.096;14.470;2023-04-24T14:15:28;6.88;;;3.08;;
67867;SDS011;54672;46.096;14.470;2023-04-24T14:17:54;5.20;;;3.28;;
67867;SDS011;54672;46.096;14.470;2023-04-24T14:20:20;7.88;;;4.45;;
67867;SDS011;54672;46.096;14.470;2023-04-24T14:22:45;7.60;;;3.80;;
67867;SDS011;54672;46.096;14.470;2023-04-24T14:25:11;9.07;;;4.85;;
67867;SDS011;54672;46.096;14.470;2023-04-24T14:27:36;11.60;;;5.88;;
67867;SDS011;54672;46.096;14.470;2023-04-24T14:30:02;7.53;;;4.20;;
67867;SDS011;54672;46.096;14.470;2023-04-24T14:32:28;6.38;;;4.10;;
67867;SDS011;54672;46.096;14.470;2023-04-24T14:34:53;5.13;;;3.53;;
67867;SDS011;54672;46.096;14.470;2023-04-24T14:37:19;5.45;;;2.72;;